sensor_id;sensor_type;location;lat;lon;timestamp;pressure;altitude;pressure_sealevel;temperature;humidity
39105;BME280;46464;51.154;13.812;2022-12-10T00:00:42;98299.09;;;0.09;100.00
39105;BME280;46464;51.154;13.812;2022-12-10T00:03:08;98300.75;;;0.13;100.00
39105;BME280;46464;51.154;13.812;2022-12-10T00:05:35;98306.09;;;0.10;100.00
39105;BME280;46464;51.154;13.812;2022-12-10T00:08:02;98302.41;;;0.17;100.00
39105;BME280;46464;51.154;13.812;2022-12-10T00:10:28;98304.31;;;0.12;100.00
39105;BME280;46464;51.154;13.812;2022-12-10T00:12:55;98299.03;;;0.12;100.00
39105;BME280;46464;51.154;13.812;2022-12-10T00:15:21;98298.31;;;0.05;100.00
39105;BME280;46464;51.154;13.812;2022-12-10T00:17:48;98294.81;;;0.03;100.00
39105;BME280;46464;51.154;13.812;2022-12-10T00:20:14;98293.97;;;0.03;100.00
39105;BME280;46464;51.154;13.812;2022-12-10T00:22:41;98293.03;;;0.05;100.00
39105;BME280;46464;51.154;13.812;2022-12-10T00:25:08;98304.53;;;0.03;100.00
39105;BME280;46464;51.154;13.812;2022-12-10T00:27:34;98299.25;;;0.01;100.00
39105;BME280;46464;51.154;13.812;2022-12-10T00:30:01;98308.09;;;0.00;100.00
39105;BME280;46464;51.154;13.812;2022-12-10T00:32:27;98305.47;;;0.00;100.00
39105;BME280;46464;51.154;13.812;2022-12-10T00:34:54;98308.09;;;-0.02;100.00
39105;BME280;46464;51.154;13.812;2022-12-10T00:37:20;98307.25;;;-0.02;100.00
39105;BME280;46464;51.154;13.812;2022-12-10T00:39:47;98303.72;;;-0.03;100.00
39105;BME280;46464;51.154;13.812;2022-12-10T00:42:13;98303.72;;;-0.03;100.00
39105;BME280;46464;51.154;13.812;2022-12-10T00:44:40;98310.75;;;0.00;100.00
39105;BME280;46464;51.154;13.812;2022-12-10T00:47:06;98319.50;;;0.01;100.00
39105;BME280;46464;51.154;13.812;2022-12-10T00:49:33;98314.22;;;0.01;100.00
39105;BME280;46464;51.154;13.812;2022-12-10T00:51:59;98312.53;;;-0.02;100.00
39105;BME280;46464;51.154;13.812;2022-12-10T00:54:26;98309.00;;;-0.03;100.00
39105;BME280;46464;51.154;13.812;2022-12-10T00:56:52;98316.03;;;-0.02;100.00
39105;BME280;46464;51.154;13.812;2022-12-10T00:59:19;98315.09;;;0.01;100.00
39105;BME280;46464;51.154;13.812;2022-12-10T01:01:45;98316.75;;;0.07;100.00
39105;BME280;46464;51.154;13.812;2022-12-10T01:04:16;98316.75;;;0.07;100.00
39105;BME280;46464;51.154;13.812;2022-12-10T01:06:51;98321.13;;;0.08;100.00
39105;BME280;46464;51.154;13.812;2022-12-10T01:09:23;98318.56;;;0.03;100.00
39105;BME280;46464;51.154;13.812;2022-12-10T01:11:51;98316.88;;;0.01;100.00
39105;BME280;46464;51.154;13.812;2022-12-10T01:14:22;98325.69;;;-0.01;100.00
39105;BME280;46464;51.154;13.812;2022-12-10T01:16:53;98322.22;;;-0.03;100.00
39105;BME280;46464;51.154;13.812;2022-12-10T01:19:20;98319.59;;;-0.04;100.00
39105;BME280;46464;51.154;13.812;2022-12-10T01:21:53;98320.28;;;0.06;100.00
39105;BME280;46464;51.154;13.812;2022-12-10T01:24:25;98325.69;;;-0.01;100.00
39105;BME280;46464;51.154;13.812;2022-12-10T01:26:53;98331.06;;;-0.04;100.00
39105;BME280;46464;51.154;13.812;2022-12-10T01:29:22;98322.34;;;-0.07;100.00
39105;BME280;46464;51.154;13.812;2022-12-10T01:31:53;98325.78;;;-0.05;100.00
39105;BME280;46464;51.154;13.812;2022-12-10T01:34:20;98324.97;;;-0.07;100.00
39105;BME280;46464;51.154;13.812;2022-12-10T01:36:52;98327.53;;;-0.04;100.00
39105;BME280;46464;51.154;13.812;2022-12-10T01:39:20;98332.84;;;-0.06;100.00
39105;BME280;46464;51.154;13.812;2022-12-10T01:41:58;98339.84;;;-0.03;100.00
39105;BME280;46464;51.154;13.812;2022-12-10T01:46:56;98338.97;;;-0.05;100.00
39105;BME280;46464;51.154;13.812;2022-12-10T01:51:54;98341.63;;;-0.04;100.00
39105;BME280;46464;51.154;13.812;2022-12-10T01:54:23;98340.72;;;-0.04;100.00
39105;BME280;46464;51.154;13.812;2022-12-10T01:57:07;98337.28;;;-0.06;100.00
39105;BME280;46464;51.154;13.812;2022-12-10T01:59:35;98341.78;;;-0.13;100.00
39105;BME280;46464;51.154;13.812;2022-12-10T02:02:13;98337.34;;;-0.11;100.00
39105;BME280;46464;51.154;13.812;2022-12-10T02:07:51;98332.00;;;-0.08;100.00
39105;BME280;46464;51.154;13.812;2022-12-10T02:13:06;98328.56;;;-0.11;100.00
39105;BME280;46464;51.154;13.812;2022-12-10T02:15:40;98326.81;;;-0.11;100.00
39105;BME280;46464;51.154;13.812;2022-12-10T02:18:19;98323.31;;;-0.13;100.00
39105;BME280;46464;51.154;13.812;2022-12-10T02:20:51;98325.03;;;-0.10;100.00
39105;BME280;46464;51.154;13.812;2022-12-10T02:23:39;98320.63;;;-0.10;100.00
39105;BME280;46464;51.154;13.812;2022-12-10T02:26:31;98310.19;;;-0.16;100.00
39105;BME280;46464;51.154;13.812;2022-12-10T02:31:43;98324.34;;;-0.20;100.00
39105;BME280;46464;51.154;13.812;2022-12-10T02:34:10;98322.53;;;-0.18;100.00
39105;BME280;46464;51.154;13.812;2022-12-10T02:36:39;98320.81;;;-0.19;100.00
39105;BME280;46464;51.154;13.812;2022-12-10T02:39:11;98317.19;;;-0.15;100.00
39105;BME280;46464;51.154;13.812;2022-12-10T02:41:42;98320.81;;;-0.19;100.00
39105;BME280;46464;51.154;13.812;2022-12-10T02:44:13;98313.72;;;-0.17;100.00
39105;BME280;46464;51.154;13.812;2022-12-10T02:46:43;98311.00;;;-0.12;100.00
39105;BME280;46464;51.154;13.812;2022-12-10T02:49:13;98316.28;;;-0.14;100.00
39105;BME280;46464;51.154;13.812;2022-12-10T02:51:40;98314.59;;;-0.17;100.00
39105;BME280;46464;51.154;13.812;2022-12-10T02:54:32;98315.44;;;-0.14;100.00
39105;BME280;46464;51.154;13.812;2022-12-10T02:56:58;98321.69;;;-0.19;100.00
39105;BME280;46464;51.154;13.812;2022-12-10T02:59:33;98320.75;;;-0.16;100.00
39105;BME280;46464;51.154;13.812;2022-12-10T03:02:13;98328.69;;;-0.18;100.00
39105;BME280;46464;51.154;13.812;2022-12-10T03:04:58;98320.00;;;-0.23;100.00
39105;BME280;46464;51.154;13.812;2022-12-10T03:07:34;98331.41;;;-0.21;100.00
39105;BME280;46464;51.154;13.812;2022-12-10T03:10:07;98328.81;;;-0.24;100.00
39105;BME280;46464;51.154;13.812;2022-12-10T03:12:50;98321.88;;;-0.28;100.00
39105;BME280;46464;51.154;13.812;2022-12-10T03:15:18;98324.47;;;-0.26;100.00
39105;BME280;46464;51.154;13.812;2022-12-10T03:17:47;98332.38;;;-0.26;100.00
39105;BME280;46464;51.154;13.812;2022-12-10T03:20:15;98327.94;;;-0.24;100.00
39105;BME280;46464;51.154;13.812;2022-12-10T03:22:44;98335.78;;;-0.21;100.00
39105;BME280;46464;51.154;13.812;2022-12-10T03:25:19;98335.78;;;-0.20;100.00
39105;BME280;46464;51.154;13.812;2022-12-10T03:27:49;98335.78;;;-0.21;100.00
39105;BME280;46464;51.154;13.812;2022-12-10T03:30:17;98334.91;;;-0.20;100.00
39105;BME280;46464;51.154;13.812;2022-12-10T03:32:44;98334.13;;;-0.25;100.00
39105;BME280;46464;51.154;13.812;2022-12-10T03:35:12;98335.91;;;-0.26;100.00
39105;BME280;46464;51.154;13.812;2022-12-10T03:37:40;98339.38;;;-0.24;100.00
39105;BME280;46464;51.154;13.812;2022-12-10T03:40:08;98342.88;;;-0.23;100.00
39105;BME280;46464;51.154;13.812;2022-12-10T03:42:37;98338.56;;;-0.26;100.00
39105;BME280;46464;51.154;13.812;2022-12-10T03:45:04;98344.72;;;-0.27;100.00
39105;BME280;46464;51.154;13.812;2022-12-10T03:47:30;98350.00;;;-0.27;100.00
39105;BME280;46464;51.154;13.812;2022-12-10T03:49:58;98342.94;;;-0.26;100.00
39105;BME280;46464;51.154;13.812;2022-12-10T03:52:24;98340.31;;;-0.26;100.00
39105;BME280;46464;51.154;13.812;2022-12-10T03:54:51;98340.31;;;-0.26;100.00
39105;BME280;46464;51.154;13.812;2022-12-10T03:57:17;98330.69;;;-0.29;100.00
39105;BME280;46464;51.154;13.812;2022-12-10T03:59:44;98329.75;;;-0.26;100.00
39105;BME280;46464;51.154;13.812;2022-12-10T04:02:11;98328.81;;;-0.24;100.00
39105;BME280;46464;51.154;13.812;2022-12-10T04:04:37;98325.34;;;-0.27;100.00
39105;BME280;46464;51.154;13.812;2022-12-10T04:07:04;98331.56;;;-0.28;100.00
39105;BME280;46464;51.154;13.812;2022-12-10T04:09:30;98330.63;;;-0.27;100.00
39105;BME280;46464;51.154;13.812;2022-12-10T04:11:58;98328.97;;;-0.31;100.00
39105;BME280;46464;51.154;13.812;2022-12-10T04:14:26;98328.13;;;-0.32;100.00
39105;BME280;46464;51.154;13.812;2022-12-10T04:17:11;98333.34;;;-0.30;100.00
39105;BME280;46464;51.154;13.812;2022-12-10T04:19:38;98332.59;;;-0.36;100.00
39105;BME280;46464;51.154;13.812;2022-12-10T04:22:05;98336.06;;;-0.35;100.00
39105;BME280;46464;51.154;13.812;2022-12-10T04:24:50;98338.66;;;-0.32;100.00
39105;BME280;46464;51.154;13.812;2022-12-10T04:27:37;98336.84;;;-0.30;100.00
39105;BME280;46464;51.154;13.812;2022-12-10T04:30:07;98336.03;;;-0.32;100.00
39105;BME280;46464;51.154;13.812;2022-12-10T04:32:34;98338.59;;;-0.29;100.00
39105;BME280;46464;51.154;13.812;2022-12-10T04:35:01;98337.84;;;-0.36;100.00
39105;BME280;46464;51.154;13.812;2022-12-10T04:37:27;98334.34;;;-0.36;100.00
39105;BME280;46464;51.154;13.812;2022-12-10T04:39:54;98342.25;;;-0.35;100.00
39105;BME280;46464;51.154;13.812;2022-12-10T04:42:21;98329.97;;;-0.37;100.00
39105;BME280;46464;51.154;13.812;2022-12-10T04:44:49;98334.22;;;-0.30;100.00
39105;BME280;46464;51.154;13.812;2022-12-10T04:47:15;98329.91;;;-0.34;100.00
39105;BME280;46464;51.154;13.812;2022-12-10T04:49:42;98337.84;;;-0.36;100.00
39105;BME280;46464;51.154;13.812;2022-12-10T04:52:11;98331.69;;;-0.36;100.00
39105;BME280;46464;51.154;13.812;2022-12-10T04:54:38;98329.97;;;-0.37;100.00
39105;BME280;46464;51.154;13.812;2022-12-10T04:57:06;98336.16;;;-0.38;100.00
39105;BME280;46464;51.154;13.812;2022-12-10T04:59:33;98331.78;;;-0.39;100.00
39105;BME280;46464;51.154;13.812;2022-12-10T05:01:59;98329.06;;;-0.36;100.00
39105;BME280;46464;51.154;13.812;2022-12-10T05:04:26;98329.09;;;-0.38;100.00
39105;BME280;46464;51.154;13.812;2022-12-10T05:06:53;98322.91;;;-0.37;100.00
39105;BME280;46464;51.154;13.812;2022-12-10T05:09:19;98327.34;;;-0.37;100.00
39105;BME280;46464;51.154;13.812;2022-12-10T05:11:46;98323.78;;;-0.36;100.00
39105;BME280;46464;51.154;13.812;2022-12-10T05:14:14;98329.06;;;-0.35;100.00
39105;BME280;46464;51.154;13.812;2022-12-10T05:16:41;98331.66;;;-0.33;100.00
39105;BME280;46464;51.154;13.812;2022-12-10T05:19:09;98322.06;;;-0.37;100.00
39105;BME280;46464;51.154;13.812;2022-12-10T05:21:37;98325.56;;;-0.37;100.00
39105;BME280;46464;51.154;13.812;2022-12-10T05:24:22;98324.63;;;-0.34;100.00
39105;BME280;46464;51.154;13.812;2022-12-10T05:26:49;98328.13;;;-0.32;100.00
39105;BME280;46464;51.154;13.812;2022-12-10T05:29:18;98324.63;;;-0.34;100.00
39105;BME280;46464;51.154;13.812;2022-12-10T05:31:45;98326.41;;;-0.35;100.00
39105;BME280;46464;51.154;13.812;2022-12-10T05:34:12;98330.84;;;-0.37;100.00
39105;BME280;46464;51.154;13.812;2022-12-10T05:36:39;98330.88;;;-0.38;100.00
39105;BME280;46464;51.154;13.812;2022-12-10T05:39:06;98331.00;;;-0.44;100.00
39105;BME280;46464;51.154;13.812;2022-12-10T05:41:34;98337.91;;;-0.37;100.00
39105;BME280;46464;51.154;13.812;2022-12-10T05:44:01;98337.91;;;-0.39;100.00
39105;BME280;46464;51.154;13.812;2022-12-10T05:46:30;98338.78;;;-0.38;100.00
39105;BME280;46464;51.154;13.812;2022-12-10T05:48:57;98335.19;;;-0.34;100.00
39105;BME280;46464;51.154;13.812;2022-12-10T05:51:25;98337.91;;;-0.37;100.00
39105;BME280;46464;51.154;13.812;2022-12-10T05:53:53;98342.28;;;-0.38;100.00
39105;BME280;46464;51.154;13.812;2022-12-10T05:56:21;98337.00;;;-0.38;100.00
39105;BME280;46464;51.154;13.812;2022-12-10T05:58:50;98344.06;;;-0.40;100.00
39105;BME280;46464;51.154;13.812;2022-12-10T06:01:22;98335.25;;;-0.37;100.00
39105;BME280;46464;51.154;13.812;2022-12-10T06:03:49;98340.53;;;-0.39;100.00
39105;BME280;46464;51.154;13.812;2022-12-10T06:06:38;98339.72;;;-0.42;100.00
39105;BME280;46464;51.154;13.812;2022-12-10T06:09:07;98337.94;;;-0.40;100.00
39105;BME280;46464;51.154;13.812;2022-12-10T06:11:35;98343.25;;;-0.42;100.00
39105;BME280;46464;51.154;13.812;2022-12-10T06:14:02;98349.34;;;-0.38;100.00
39105;BME280;46464;51.154;13.812;2022-12-10T06:16:29;98351.13;;;-0.40;100.00
39105;BME280;46464;51.154;13.812;2022-12-10T06:18:55;98349.28;;;-0.35;100.00
39105;BME280;46464;51.154;13.812;2022-12-10T06:21:23;98347.56;;;-0.38;100.00
39105;BME280;46464;51.154;13.812;2022-12-10T06:23:51;98353.78;;;-0.40;100.00
39105;BME280;46464;51.154;13.812;2022-12-10T06:26:27;98357.31;;;-0.41;100.00
39105;BME280;46464;51.154;13.812;2022-12-10T06:28:54;98354.66;;;-0.41;100.00
39105;BME280;46464;51.154;13.812;2022-12-10T06:31:22;98364.34;;;-0.40;100.00
39105;BME280;46464;51.154;13.812;2022-12-10T06:33:49;98366.13;;;-0.42;100.00
39105;BME280;46464;51.154;13.812;2022-12-10T06:36:17;98368.59;;;-0.33;100.00
39105;BME280;46464;51.154;13.812;2022-12-10T06:38:45;98366.06;;;-0.39;100.00
39105;BME280;46464;51.154;13.812;2022-12-10T06:41:13;98369.53;;;-0.36;100.00
39105;BME280;46464;51.154;13.812;2022-12-10T06:43:40;98367.03;;;-0.45;100.00
39105;BME280;46464;51.154;13.812;2022-12-10T06:46:13;98376.66;;;-0.42;100.00
39105;BME280;46464;51.154;13.812;2022-12-10T06:48:41;98378.44;;;-0.43;100.00
39105;BME280;46464;51.154;13.812;2022-12-10T06:51:08;98379.38;;;-0.45;100.00
39105;BME280;46464;51.154;13.812;2022-12-10T06:53:35;98373.25;;;-0.47;100.00
39105;BME280;46464;51.154;13.812;2022-12-10T06:56:03;98383.81;;;-0.47;100.00
39105;BME280;46464;51.154;13.812;2022-12-10T06:58:32;98378.56;;;-0.49;100.00
39105;BME280;46464;51.154;13.812;2022-12-10T07:01:06;98377.69;;;-0.48;100.00
39105;BME280;46464;51.154;13.812;2022-12-10T07:03:34;98379.34;;;-0.44;100.00
39105;BME280;46464;51.154;13.812;2022-12-10T07:06:00;98376.78;;;-0.49;100.00
39105;BME280;46464;51.154;13.812;2022-12-10T07:08:27;98390.84;;;-0.46;100.00
39105;BME280;46464;51.154;13.812;2022-12-10T07:10:54;98388.16;;;-0.45;100.00
39105;BME280;46464;51.154;13.812;2022-12-10T07:13:21;98382.06;;;-0.49;100.00
39105;BME280;46464;51.154;13.812;2022-12-10T07:15:55;98384.63;;;-0.44;100.00
39105;BME280;46464;51.154;13.812;2022-12-10T07:18:22;98384.66;;;-0.45;100.00
39105;BME280;46464;51.154;13.812;2022-12-10T07:20:48;98392.63;;;-0.47;100.00
39105;BME280;46464;51.154;13.812;2022-12-10T07:23:15;98389.09;;;-0.47;100.00
39105;BME280;46464;51.154;13.812;2022-12-10T07:25:41;98392.53;;;-0.44;100.00
39105;BME280;46464;51.154;13.812;2022-12-10T07:28:08;98400.41;;;-0.42;100.00
39105;BME280;46464;51.154;13.812;2022-12-10T07:30:35;98397.84;;;-0.45;100.00
39105;BME280;46464;51.154;13.812;2022-12-10T07:33:01;98398.75;;;-0.46;100.00
39105;BME280;46464;51.154;13.812;2022-12-10T07:35:28;98396.19;;;-0.51;100.00
39105;BME280;46464;51.154;13.812;2022-12-10T07:37:54;98405.00;;;-0.52;100.00
39105;BME280;46464;51.154;13.812;2022-12-10T07:40:21;98397.06;;;-0.51;100.00
39105;BME280;46464;51.154;13.812;2022-12-10T07:42:48;98397.91;;;-0.49;100.00
39105;BME280;46464;51.154;13.812;2022-12-10T07:45:14;98407.47;;;-0.43;100.00
39105;BME280;46464;51.154;13.812;2022-12-10T07:47:41;98401.34;;;-0.45;100.00
39105;BME280;46464;51.154;13.812;2022-12-10T07:50:07;98401.47;;;-0.50;100.00
39105;BME280;46464;51.154;13.812;2022-12-10T07:52:34;98408.44;;;-0.49;100.00
39105;BME280;46464;51.154;13.812;2022-12-10T07:55:01;98410.22;;;-0.49;100.00
39105;BME280;46464;51.154;13.812;2022-12-10T07:57:29;98409.31;;;-0.46;100.00
39105;BME280;46464;51.154;13.812;2022-12-10T07:59:56;98411.03;;;-0.45;100.00
39105;BME280;46464;51.154;13.812;2022-12-10T08:02:24;98401.31;;;-0.42;100.00
39105;BME280;46464;51.154;13.812;2022-12-10T08:04:51;98403.97;;;-0.45;100.00
39105;BME280;46464;51.154;13.812;2022-12-10T08:07:17;98409.31;;;-0.46;100.00
39105;BME280;46464;51.154;13.812;2022-12-10T08:09:44;98403.97;;;-0.45;100.00
39105;BME280;46464;51.154;13.812;2022-12-10T08:12:11;98404.88;;;-0.44;100.00
39105;BME280;46464;51.154;13.812;2022-12-10T08:14:37;98412.78;;;-0.44;100.00
39105;BME280;46464;51.154;13.812;2022-12-10T08:17:04;98407.53;;;-0.46;100.00
39105;BME280;46464;51.154;13.812;2022-12-10T08:19:30;98408.41;;;-0.45;100.00
39105;BME280;46464;51.154;13.812;2022-12-10T08:21:57;98417.19;;;-0.43;100.00
39105;BME280;46464;51.154;13.812;2022-12-10T08:24:24;98419.78;;;-0.42;100.00
39105;BME280;46464;51.154;13.812;2022-12-10T08:26:50;98419.84;;;-0.46;100.00
39105;BME280;46464;51.154;13.812;2022-12-10T08:29:17;98422.53;;;-0.48;100.00
39105;BME280;46464;51.154;13.812;2022-12-10T08:31:44;98426.91;;;-0.47;100.00
39105;BME280;46464;51.154;13.812;2022-12-10T08:34:13;98424.19;;;-0.44;100.00
39105;BME280;46464;51.154;13.812;2022-12-10T08:36:40;98427.72;;;-0.43;100.00
39105;BME280;46464;51.154;13.812;2022-12-10T08:39:07;98425.94;;;-0.43;100.00
39105;BME280;46464;51.154;13.812;2022-12-10T08:41:36;98423.34;;;-0.46;100.00
39105;BME280;46464;51.154;13.812;2022-12-10T08:44:03;98428.63;;;-0.44;100.00
39105;BME280;46464;51.154;13.812;2022-12-10T08:46:29;98426.03;;;-0.47;100.00
39105;BME280;46464;51.154;13.812;2022-12-10T08:48:56;98430.47;;;-0.50;100.00
39105;BME280;46464;51.154;13.812;2022-12-10T08:51:24;98431.38;;;-0.52;100.00
39105;BME280;46464;51.154;13.812;2022-12-10T08:53:50;98434.88;;;-0.50;100.00
39105;BME280;46464;51.154;13.812;2022-12-10T08:56:17;98434.84;;;-0.49;100.00
39105;BME280;46464;51.154;13.812;2022-12-10T08:58:43;98434.78;;;-0.45;100.00
39105;BME280;46464;51.154;13.812;2022-12-10T09:01:12;98440.13;;;-0.50;100.00
39105;BME280;46464;51.154;13.812;2022-12-10T09:03:39;98442.75;;;-0.47;100.00
39105;BME280;46464;51.154;13.812;2022-12-10T09:06:09;98440.97;;;-0.46;100.00
39105;BME280;46464;51.154;13.812;2022-12-10T09:08:36;98454.19;;;-0.48;100.00
39105;BME280;46464;51.154;13.812;2022-12-10T09:11:13;98455.94;;;-0.47;100.00
39105;BME280;46464;51.154;13.812;2022-12-10T09:13:39;98454.16;;;-0.46;100.00
39105;BME280;46464;51.154;13.812;2022-12-10T09:16:06;98448.03;;;-0.47;100.00
39105;BME280;46464;51.154;13.812;2022-12-10T09:18:33;98449.72;;;-0.46;100.00
39105;BME280;46464;51.154;13.812;2022-12-10T09:21:03;98449.72;;;-0.44;100.00
39105;BME280;46464;51.154;13.812;2022-12-10T09:23:30;98444.47;;;-0.44;100.00
39105;BME280;46464;51.154;13.812;2022-12-10T09:25:57;98448.81;;;-0.42;100.00
39105;BME280;46464;51.154;13.812;2022-12-10T09:28:23;98450.50;;;-0.39;100.00
39105;BME280;46464;51.154;13.812;2022-12-10T09:31:00;98446.94;;;-0.37;100.00
39105;BME280;46464;51.154;13.812;2022-12-10T09:33:28;98447.91;;;-0.42;100.00
39105;BME280;46464;51.154;13.812;2022-12-10T09:35:54;98440.91;;;-0.43;100.00
39105;BME280;46464;51.154;13.812;2022-12-10T09:38:21;98444.31;;;-0.37;100.00
39105;BME280;46464;51.154;13.812;2022-12-10T09:41:00;98440.78;;;-0.36;100.00
39105;BME280;46464;51.154;13.812;2022-12-10T09:46:25;98443.63;;;-0.48;100.00
39105;BME280;46464;51.154;13.812;2022-12-10T09:49:02;98444.56;;;-0.52;100.00
39105;BME280;46464;51.154;13.812;2022-12-10T09:51:37;98447.25;;;-0.54;100.00
39105;BME280;46464;51.154;13.812;2022-12-10T09:54:25;98435.78;;;-0.53;100.00
39105;BME280;46464;51.154;13.812;2022-12-10T09:56:54;98441.09;;;-0.54;100.00
39105;BME280;46464;51.154;13.812;2022-12-10T09:59:26;98435.81;;;-0.54;100.00
39105;BME280;46464;51.154;13.812;2022-12-10T10:02:18;98437.56;;;-0.53;100.00
39105;BME280;46464;51.154;13.812;2022-12-10T10:04:47;98433.22;;;-0.56;100.00
39105;BME280;46464;51.154;13.812;2022-12-10T10:07:26;98438.44;;;-0.53;100.00
39105;BME280;46464;51.154;13.812;2022-12-10T10:10:00;98436.66;;;-0.52;100.00
39105;BME280;46464;51.154;13.812;2022-12-10T10:12:31;98433.16;;;-0.53;100.00
39105;BME280;46464;51.154;13.812;2022-12-10T10:15:10;98433.94;;;-0.47;100.00
39105;BME280;46464;51.154;13.812;2022-12-10T10:17:38;98424.25;;;-0.45;100.00
39105;BME280;46464;51.154;13.812;2022-12-10T10:20:05;98431.16;;;-0.40;100.00
39105;BME280;46464;51.154;13.812;2022-12-10T10:22:32;98440.91;;;-0.43;100.00
39105;BME280;46464;51.154;13.812;2022-12-10T10:24:59;98427.00;;;-0.52;100.00
39105;BME280;46464;51.154;13.812;2022-12-10T10:27:30;98429.63;;;-0.52;100.00
39105;BME280;46464;51.154;13.812;2022-12-10T10:30:00;98427.06;;;-0.56;100.00
39105;BME280;46464;51.154;13.812;2022-12-10T10:35:06;98429.66;;;-0.55;100.00
39105;BME280;46464;51.154;13.812;2022-12-10T10:40:00;98426.13;;;-0.54;100.00
39105;BME280;46464;51.154;13.812;2022-12-10T10:44:56;98428.78;;;-0.54;100.00
39105;BME280;46464;51.154;13.812;2022-12-10T10:47:29;98428.66;;;-0.47;100.00
39105;BME280;46464;51.154;13.812;2022-12-10T10:50:03;98423.53;;;-0.55;100.00
39105;BME280;46464;51.154;13.812;2022-12-10T10:52:36;98426.19;;;-0.58;100.00
39105;BME280;46464;51.154;13.812;2022-12-10T10:55:04;98421.84;;;-0.61;100.00
39105;BME280;46464;51.154;13.812;2022-12-10T10:57:35;98427.13;;;-0.59;100.00
39105;BME280;46464;51.154;13.812;2022-12-10T11:02:37;98420.13;;;-0.62;100.00
39105;BME280;46464;51.154;13.812;2022-12-10T11:05:26;98420.97;;;-0.60;100.00
39105;BME280;46464;51.154;13.812;2022-12-10T11:10:29;98418.31;;;-0.60;100.00
39105;BME280;46464;51.154;13.812;2022-12-10T11:12:58;98419.16;;;-0.56;100.00
39105;BME280;46464;51.154;13.812;2022-12-10T11:18:03;98422.63;;;-0.54;100.00
39105;BME280;46464;51.154;13.812;2022-12-10T11:21:00;98420.06;;;-0.59;100.00
39105;BME280;46464;51.154;13.812;2022-12-10T11:23:29;98425.28;;;-0.54;100.00
39105;BME280;46464;51.154;13.812;2022-12-10T11:26:02;98423.56;;;-0.57;100.00
39105;BME280;46464;51.154;13.812;2022-12-10T11:33:57;98427.03;;;-0.53;100.00
39105;BME280;46464;51.154;13.812;2022-12-10T11:36:46;98426.13;;;-0.54;100.00
39105;BME280;46464;51.154;13.812;2022-12-10T11:42:32;98432.28;;;-0.53;100.00
39105;BME280;46464;51.154;13.812;2022-12-10T11:45:33;98426.91;;;-0.47;100.00
39105;BME280;46464;51.154;13.812;2022-12-10T11:51:08;98431.25;;;-0.44;100.00
39105;BME280;46464;51.154;13.812;2022-12-10T11:53:53;98433.00;;;-0.43;100.00
39105;BME280;46464;51.154;13.812;2022-12-10T11:56:33;98429.56;;;-0.49;100.00
39105;BME280;46464;51.154;13.812;2022-12-10T12:08:14;98431.34;;;-0.49;100.00
39105;BME280;46464;51.154;13.812;2022-12-10T12:13:36;98431.19;;;-0.41;100.00
39105;BME280;46464;51.154;13.812;2022-12-10T12:16:13;98431.25;;;-0.44;100.00
39105;BME280;46464;51.154;13.812;2022-12-10T12:19:09;98432.09;;;-0.42;100.00
39105;BME280;46464;51.154;13.812;2022-12-10T12:21:38;98434.78;;;-0.45;100.00
39105;BME280;46464;51.154;13.812;2022-12-10T12:24:12;98432.91;;;-0.37;100.00
39105;BME280;46464;51.154;13.812;2022-12-10T12:26:46;98431.25;;;-0.46;100.00
39105;BME280;46464;51.154;13.812;2022-12-10T12:31:54;98433.97;;;-0.49;100.00
39105;BME280;46464;51.154;13.812;2022-12-10T12:34:45;98436.75;;;-0.57;100.00
39105;BME280;46464;51.154;13.812;2022-12-10T12:37:16;98434.91;;;-0.52;100.00
39105;BME280;46464;51.154;13.812;2022-12-10T12:39:50;98430.59;;;-0.57;100.00
39105;BME280;46464;51.154;13.812;2022-12-10T12:42:42;98428.03;;;-0.60;100.00
39105;BME280;46464;51.154;13.812;2022-12-10T12:45:32;98425.31;;;-0.56;100.00
39105;BME280;46464;51.154;13.812;2022-12-10T12:51:09;98417.44;;;-0.59;100.00
39105;BME280;46464;51.154;13.812;2022-12-10T12:53:38;98427.09;;;-0.58;100.00
39105;BME280;46464;51.154;13.812;2022-12-10T12:59:17;98420.97;;;-0.60;100.00
39105;BME280;46464;51.154;13.812;2022-12-10T13:01:51;98421.84;;;-0.59;100.00
39105;BME280;46464;51.154;13.812;2022-12-10T13:04:19;98424.41;;;-0.56;100.00
39105;BME280;46464;51.154;13.812;2022-12-10T13:09:31;98437.50;;;-0.50;100.00
39105;BME280;46464;51.154;13.812;2022-12-10T13:14:36;98440.28;;;-0.58;100.00
39105;BME280;46464;51.154;13.812;2022-12-10T13:17:38;98432.34;;;-0.56;100.00
39105;BME280;46464;51.154;13.812;2022-12-10T13:28:32;98443.88;;;-0.62;100.00
39105;BME280;46464;51.154;13.812;2022-12-10T13:33:48;98449.13;;;-0.60;100.00
39105;BME280;46464;51.154;13.812;2022-12-10T13:36:37;98452.59;;;-0.58;100.00
39105;BME280;46464;51.154;13.812;2022-12-10T13:45:00;98458.81;;;-0.62;100.00
39105;BME280;46464;51.154;13.812;2022-12-10T13:50:06;98465.03;;;-0.65;100.00
39105;BME280;46464;51.154;13.812;2022-12-10T13:58:38;98472.09;;;-0.69;100.00
39105;BME280;46464;51.154;13.812;2022-12-10T14:06:24;98473.78;;;-0.65;100.00
39105;BME280;46464;51.154;13.812;2022-12-10T14:09:13;98480.81;;;-0.62;100.00
39105;BME280;46464;51.154;13.812;2022-12-10T14:11:48;98464.09;;;-0.62;100.00
39105;BME280;46464;51.154;13.812;2022-12-10T14:14:30;98475.59;;;-0.67;100.00
39105;BME280;46464;51.154;13.812;2022-12-10T14:17:04;98475.66;;;-0.71;100.00
39105;BME280;46464;51.154;13.812;2022-12-10T14:19:33;98480.03;;;-0.69;100.00
39105;BME280;46464;51.154;13.812;2022-12-10T14:22:08;98480.06;;;-0.70;100.00
39105;BME280;46464;51.154;13.812;2022-12-10T14:24:39;98482.66;;;-0.69;100.00
39105;BME280;46464;51.154;13.812;2022-12-10T14:27:12;98481.84;;;-0.71;100.00
39105;BME280;46464;51.154;13.812;2022-12-10T14:29:46;98483.59;;;-0.71;100.00
39105;BME280;46464;51.154;13.812;2022-12-10T14:32:25;98484.41;;;-0.68;100.00
39105;BME280;46464;51.154;13.812;2022-12-10T14:34:56;98482.72;;;-0.73;100.00
39105;BME280;46464;51.154;13.812;2022-12-10T14:37:25;98480.16;;;-0.76;100.00